Airfield :
LOGIN :

Register | Disclaimer

   EN    FR    IT 

 










Legend :    VFR   Marginal VFR   IFR   Intensive IFR   Very Intensive IFR
Visi :
Ceiling :
>= 8 km
>= 3000ft
5 to 8 km
1000 to 3000 ft
1500m to 5 km
500 to 1000 ft
800 to 1500m
200 to 500 ft
< 800m
< 200 ft
Symbols :   Thunderstorms  Fog  Heavy snow  Heavy precipitations  Wind > 20 kt
SIGMETs :     Misc.  Thunderstorms  Icing  Turbulence  Mountain Waves  Volcanic Ashes







- Airport Elevation : 1416 ft
- IATA code : ZRH


LSZH - Zurich

CURRENT METAR :
  • 171420Z 05011KT 010V080 9999 FEW020 BKN025 M03/M08 Q1027 NOSIG

EXPIRED METARs :
  • 171350Z 05010KT 9999 FEW019 BKN024 M03/M08 Q1027 NOSIG
  • 171320Z 03011KT 9999 FEW019 BKN023 M04/M08 Q1027 NOSIG
  • 171250Z 03009KT 360V070 9999 FEW017 BKN020 M04/M08 Q1027 NOSIG
  • 171220Z 03010KT 350V060 9999 FEW017 BKN020 M04/M08 Q1027 NOSIG
  • 171150Z 04006KT 340V080 9999 FEW017 BKN020 M04/M08 Q1027 NOSIG

TAF TAF LSZH
Valid from the 17 at 15:00 until the 18 at 21:00 UTC


171425Z 1715/1821 05010KT 9999 FEW015 BKN025 TXM03/1715Z TNM06/1805Z TXM04/1814Z
TEMPO 1715/1802 04015G30KT DRSN
PROB30
TEMPO 1715/1720 4500 -SN
BECMG 1817/1820 05005KT
ATIS : +41 43 816 2295 (DEP) +41 43 816 2294 (ARR)
No reported NOTAMs for that airfield.



MET'MAP, your aeronautical weather chart ! - Copyright ORBIFLY December 2007 - Disclaimer

ORBIFLY MET'MAP TEAM :

Programming & Development : Alexandra Zaïnal
Concept & Development : Baudouin d'Aumeries
Co-Development & Prog : Marc-Olivier Méhu
Technical & hardware support : Manuel Goepfert

Contact : metmap@orbifly.com




SOURCES & CREDITS :

   NOAA